sensor_id;sensor_type;location;lat;lon;timestamp;pressure;altitude;pressure_sealevel;temperature
68127;BMP180;54931;52.098;21.006;2024-03-02T00:00:22;99955.00;;;6.18
68127;BMP180;54931;52.098;21.006;2024-03-02T00:03:12;99951.20;;;6.14
68127;BMP180;54931;52.098;21.006;2024-03-02T00:05:41;99951.40;;;6.10
68127;BMP180;54931;52.098;21.006;2024-03-02T00:08:09;99947.20;;;6.10
68127;BMP180;54931;52.098;21.006;2024-03-02T00:10:39;99944.80;;;6.10
68127;BMP180;54931;52.098;21.006;2024-03-02T00:13:08;99949.80;;;6.10
68127;BMP180;54931;52.098;21.006;2024-03-02T00:15:40;99947.40;;;6.10
68127;BMP180;54931;52.098;21.006;2024-03-02T00:18:34;99951.40;;;6.10
68127;BMP180;54931;52.098;21.006;2024-03-02T00:21:04;99952.40;;;6.10
68127;BMP180;54931;52.098;21.006;2024-03-02T00:23:34;99951.20;;;6.00
68127;BMP180;54931;52.098;21.006;2024-03-02T00:26:03;99946.20;;;6.00
68127;BMP180;54931;52.098;21.006;2024-03-02T00:28:35;99947.40;;;6.00
68127;BMP180;54931;52.098;21.006;2024-03-02T00:31:06;99944.20;;;6.00
68127;BMP180;54931;52.098;21.006;2024-03-02T00:33:39;99947.20;;;6.00
68127;BMP180;54931;52.098;21.006;2024-03-02T00:36:08;99947.40;;;6.00
68127;BMP180;54931;52.098;21.006;2024-03-02T00:38:49;99947.20;;;6.00
68127;BMP180;54931;52.098;21.006;2024-03-02T00:41:31;99945.40;;;6.00
68127;BMP180;54931;52.098;21.006;2024-03-02T00:44:04;99954.80;;;6.00
68127;BMP180;54931;52.098;21.006;2024-03-02T00:46:35;99952.80;;;6.00
68127;BMP180;54931;52.098;21.006;2024-03-02T00:51:35;99951.20;;;5.92
68127;BMP180;54931;52.098;21.006;2024-03-02T00:54:09;99942.20;;;5.90
68127;BMP180;54931;52.098;21.006;2024-03-02T00:56:38;99942.20;;;5.90
68127;BMP180;54931;52.098;21.006;2024-03-02T00:59:06;99937.00;;;5.90
68127;BMP180;54931;52.098;21.006;2024-03-02T01:01:34;99940.20;;;5.90
68127;BMP180;54931;52.098;21.006;2024-03-02T01:04:03;99934.80;;;5.84
68127;BMP180;54931;52.098;21.006;2024-03-02T01:06:31;99936.60;;;5.80
68127;BMP180;54931;52.098;21.006;2024-03-02T01:08:58;99932.40;;;5.80
68127;BMP180;54931;52.098;21.006;2024-03-02T01:11:26;99926.20;;;5.78
68127;BMP180;54931;52.098;21.006;2024-03-02T01:13:55;99929.80;;;5.70
68127;BMP180;54931;52.098;21.006;2024-03-02T01:16:23;99929.00;;;5.70
68127;BMP180;54931;52.098;21.006;2024-03-02T01:18:50;99925.40;;;5.70
68127;BMP180;54931;52.098;21.006;2024-03-02T01:21:18;99930.00;;;5.70
68127;BMP180;54931;52.098;21.006;2024-03-02T01:23:46;99931.40;;;5.70
68127;BMP180;54931;52.098;21.006;2024-03-02T01:26:14;99929.20;;;5.70
68127;BMP180;54931;52.098;21.006;2024-03-02T01:28:41;99932.60;;;5.62
68127;BMP180;54931;52.098;21.006;2024-03-02T01:31:09;99935.20;;;5.60
68127;BMP180;54931;52.098;21.006;2024-03-02T01:33:37;99927.20;;;5.60
68127;BMP180;54931;52.098;21.006;2024-03-02T01:36:05;99929.40;;;5.60
68127;BMP180;54931;52.098;21.006;2024-03-02T01:38:35;99927.60;;;5.60
68127;BMP180;54931;52.098;21.006;2024-03-02T01:41:04;99917.80;;;5.60
68127;BMP180;54931;52.098;21.006;2024-03-02T01:43:32;99921.80;;;5.60
68127;BMP180;54931;52.098;21.006;2024-03-02T01:45:59;99916.60;;;5.60
68127;BMP180;54931;52.098;21.006;2024-03-02T01:48:27;99913.60;;;5.60
68127;BMP180;54931;52.098;21.006;2024-03-02T01:50:56;99913.00;;;5.60
68127;BMP180;54931;52.098;21.006;2024-03-02T01:53:24;99911.00;;;5.60
68127;BMP180;54931;52.098;21.006;2024-03-02T01:55:52;99912.00;;;5.60
68127;BMP180;54931;52.098;21.006;2024-03-02T01:58:20;99911.60;;;5.60
68127;BMP180;54931;52.098;21.006;2024-03-02T02:00:48;99910.80;;;5.60
68127;BMP180;54931;52.098;21.006;2024-03-02T02:03:16;99909.00;;;5.60
68127;BMP180;54931;52.098;21.006;2024-03-02T02:05:45;99908.60;;;5.60
68127;BMP180;54931;52.098;21.006;2024-03-02T02:08:14;99910.00;;;5.60
68127;BMP180;54931;52.098;21.006;2024-03-02T02:10:42;99905.00;;;5.52
68127;BMP180;54931;52.098;21.006;2024-03-02T02:13:09;99912.00;;;5.50
68127;BMP180;54931;52.098;21.006;2024-03-02T02:15:37;99909.00;;;5.50
68127;BMP180;54931;52.098;21.006;2024-03-02T02:18:05;99904.60;;;5.50
68127;BMP180;54931;52.098;21.006;2024-03-02T02:20:33;99911.00;;;5.50
68127;BMP180;54931;52.098;21.006;2024-03-02T02:23:04;99908.00;;;5.46
68127;BMP180;54931;52.098;21.006;2024-03-02T02:25:37;99908.20;;;5.40
68127;BMP180;54931;52.098;21.006;2024-03-02T02:28:05;99904.80;;;5.40
68127;BMP180;54931;52.098;21.006;2024-03-02T02:30:32;99901.20;;;5.30
68127;BMP180;54931;52.098;21.006;2024-03-02T02:33:00;99897.00;;;5.30
68127;BMP180;54931;52.098;21.006;2024-03-02T02:35:29;99895.00;;;5.30
68127;BMP180;54931;52.098;21.006;2024-03-02T02:37:58;99891.00;;;5.30
68127;BMP180;54931;52.098;21.006;2024-03-02T02:40:27;99893.20;;;5.30
68127;BMP180;54931;52.098;21.006;2024-03-02T02:42:58;99889.80;;;5.20
68127;BMP180;54931;52.098;21.006;2024-03-02T02:45:29;99882.40;;;5.20
68127;BMP180;54931;52.098;21.006;2024-03-02T02:47:57;99881.00;;;5.20
68127;BMP180;54931;52.098;21.006;2024-03-02T02:50:25;99887.60;;;5.20
68127;BMP180;54931;52.098;21.006;2024-03-02T02:52:53;99883.80;;;5.10
68127;BMP180;54931;52.098;21.006;2024-03-02T02:55:20;99883.60;;;5.10
68127;BMP180;54931;52.098;21.006;2024-03-02T02:57:48;99883.40;;;5.08
68127;BMP180;54931;52.098;21.006;2024-03-02T03:00:16;99879.20;;;5.00
68127;BMP180;54931;52.098;21.006;2024-03-02T03:02:49;99876.80;;;5.00
68127;BMP180;54931;52.098;21.006;2024-03-02T03:05:18;99874.20;;;5.00
68127;BMP180;54931;52.098;21.006;2024-03-02T03:07:46;99871.80;;;4.98
68127;BMP180;54931;52.098;21.006;2024-03-02T03:10:17;99874.40;;;4.96
68127;BMP180;54931;52.098;21.006;2024-03-02T03:12:45;99867.20;;;4.90
68127;BMP180;54931;52.098;21.006;2024-03-02T03:15:14;99870.20;;;4.90
68127;BMP180;54931;52.098;21.006;2024-03-02T03:17:43;99867.20;;;4.90
68127;BMP180;54931;52.098;21.006;2024-03-02T03:20:13;99869.20;;;4.90
68127;BMP180;54931;52.098;21.006;2024-03-02T03:22:43;99869.40;;;4.88
68127;BMP180;54931;52.098;21.006;2024-03-02T03:25:11;99867.40;;;4.80
68127;BMP180;54931;52.098;21.006;2024-03-02T03:27:39;99871.60;;;4.80
68127;BMP180;54931;52.098;21.006;2024-03-02T03:30:08;99877.00;;;4.80
68127;BMP180;54931;52.098;21.006;2024-03-02T03:32:35;99875.60;;;4.80
68127;BMP180;54931;52.098;21.006;2024-03-02T03:35:05;99870.80;;;4.70
68127;BMP180;54931;52.098;21.006;2024-03-02T03:37:34;99870.20;;;4.78
68127;BMP180;54931;52.098;21.006;2024-03-02T03:40:05;99873.40;;;4.78
68127;BMP180;54931;52.098;21.006;2024-03-02T03:42:39;99870.00;;;4.80
68127;BMP180;54931;52.098;21.006;2024-03-02T03:45:09;99864.40;;;4.78
68127;BMP180;54931;52.098;21.006;2024-03-02T03:47:36;99864.40;;;4.80
68127;BMP180;54931;52.098;21.006;2024-03-02T03:50:06;99869.00;;;4.74
68127;BMP180;54931;52.098;21.006;2024-03-02T03:52:34;99873.60;;;4.70
68127;BMP180;54931;52.098;21.006;2024-03-02T03:55:03;99869.40;;;4.70
68127;BMP180;54931;52.098;21.006;2024-03-02T03:57:31;99866.20;;;4.70
68127;BMP180;54931;52.098;21.006;2024-03-02T03:59:58;99869.40;;;4.66
68127;BMP180;54931;52.098;21.006;2024-03-02T04:02:27;99870.80;;;4.60
68127;BMP180;54931;52.098;21.006;2024-03-02T04:04:55;99876.20;;;4.60
68127;BMP180;54931;52.098;21.006;2024-03-02T04:07:23;99867.20;;;4.60
68127;BMP180;54931;52.098;21.006;2024-03-02T04:09:51;99865.20;;;4.58
68127;BMP180;54931;52.098;21.006;2024-03-02T04:12:19;99870.60;;;4.50
68127;BMP180;54931;52.098;21.006;2024-03-02T04:15:08;99872.20;;;4.56
68127;BMP180;54931;52.098;21.006;2024-03-02T04:17:56;99871.20;;;4.58
68127;BMP180;54931;52.098;21.006;2024-03-02T04:20:31;99872.60;;;4.54
68127;BMP180;54931;52.098;21.006;2024-03-02T04:22:58;99877.80;;;4.50
68127;BMP180;54931;52.098;21.006;2024-03-02T04:25:26;99871.00;;;4.52
68127;BMP180;54931;52.098;21.006;2024-03-02T04:27:53;99872.40;;;4.50
68127;BMP180;54931;52.098;21.006;2024-03-02T04:30:21;99867.40;;;4.50
68127;BMP180;54931;52.098;21.006;2024-03-02T04:32:49;99869.80;;;4.54
68127;BMP180;54931;52.098;21.006;2024-03-02T04:35:17;99868.80;;;4.58
68127;BMP180;54931;52.098;21.006;2024-03-02T04:37:46;99869.40;;;4.50
68127;BMP180;54931;52.098;21.006;2024-03-02T04:40:14;99863.20;;;4.52
68127;BMP180;54931;52.098;21.006;2024-03-02T04:42:42;99861.40;;;4.54
68127;BMP180;54931;52.098;21.006;2024-03-02T04:45:10;99867.60;;;4.54
68127;BMP180;54931;52.098;21.006;2024-03-02T04:47:38;99863.20;;;4.50
68127;BMP180;54931;52.098;21.006;2024-03-02T04:50:07;99868.40;;;4.50
68127;BMP180;54931;52.098;21.006;2024-03-02T04:52:35;99863.40;;;4.50
68127;BMP180;54931;52.098;21.006;2024-03-02T04:55:03;99866.40;;;4.50
68127;BMP180;54931;52.098;21.006;2024-03-02T04:57:44;99867.00;;;4.50
68127;BMP180;54931;52.098;21.006;2024-03-02T05:00:14;99868.80;;;4.50
68127;BMP180;54931;52.098;21.006;2024-03-02T05:02:42;99875.60;;;4.50
68127;BMP180;54931;52.098;21.006;2024-03-02T05:05:10;99878.60;;;4.50
68127;BMP180;54931;52.098;21.006;2024-03-02T05:07:37;99882.40;;;4.50
68127;BMP180;54931;52.098;21.006;2024-03-02T05:10:06;99879.20;;;4.50
68127;BMP180;54931;52.098;21.006;2024-03-02T05:12:34;99881.40;;;4.50
68127;BMP180;54931;52.098;21.006;2024-03-02T05:15:15;99878.20;;;4.52
68127;BMP180;54931;52.098;21.006;2024-03-02T05:17:43;99883.80;;;4.50
68127;BMP180;54931;52.098;21.006;2024-03-02T05:20:11;99888.60;;;4.50
68127;BMP180;54931;52.098;21.006;2024-03-02T05:22:39;99889.80;;;4.58
68127;BMP180;54931;52.098;21.006;2024-03-02T05:25:08;99897.00;;;4.56
68127;BMP180;54931;52.098;21.006;2024-03-02T05:27:37;99899.00;;;4.58
68127;BMP180;54931;52.098;21.006;2024-03-02T05:30:06;99904.40;;;4.58
68127;BMP180;54931;52.098;21.006;2024-03-02T05:32:34;99894.40;;;4.60
68127;BMP180;54931;52.098;21.006;2024-03-02T05:35:04;99903.00;;;4.60
68127;BMP180;54931;52.098;21.006;2024-03-02T05:37:32;99902.20;;;4.60
68127;BMP180;54931;52.098;21.006;2024-03-02T05:40:00;99902.20;;;4.60
68127;BMP180;54931;52.098;21.006;2024-03-02T05:42:28;99903.80;;;4.60
68127;BMP180;54931;52.098;21.006;2024-03-02T05:44:57;99903.00;;;4.60
68127;BMP180;54931;52.098;21.006;2024-03-02T05:47:24;99904.00;;;4.60
68127;BMP180;54931;52.098;21.006;2024-03-02T05:49:52;99909.00;;;4.60
68127;BMP180;54931;52.098;21.006;2024-03-02T05:52:20;99910.80;;;4.60
68127;BMP180;54931;52.098;21.006;2024-03-02T05:54:49;99916.40;;;4.60
68127;BMP180;54931;52.098;21.006;2024-03-02T05:57:17;99916.80;;;4.60
68127;BMP180;54931;52.098;21.006;2024-03-02T05:59:59;99921.40;;;4.64
68127;BMP180;54931;52.098;21.006;2024-03-02T06:02:27;99921.80;;;4.70
68127;BMP180;54931;52.098;21.006;2024-03-02T06:04:56;99921.40;;;4.70
68127;BMP180;54931;52.098;21.006;2024-03-02T06:07:24;99920.60;;;4.70
68127;BMP180;54931;52.098;21.006;2024-03-02T06:09:52;99923.20;;;4.70
68127;BMP180;54931;52.098;21.006;2024-03-02T06:12:20;99920.60;;;4.70
68127;BMP180;54931;52.098;21.006;2024-03-02T06:14:48;99923.40;;;4.78
68127;BMP180;54931;52.098;21.006;2024-03-02T06:17:15;99924.00;;;4.80
68127;BMP180;54931;52.098;21.006;2024-03-02T06:19:43;99926.60;;;4.80
68127;BMP180;54931;52.098;21.006;2024-03-02T06:22:11;99930.60;;;4.86
68127;BMP180;54931;52.098;21.006;2024-03-02T06:24:39;99944.20;;;4.90
68127;BMP180;54931;52.098;21.006;2024-03-02T06:27:06;99943.40;;;4.90
68127;BMP180;54931;52.098;21.006;2024-03-02T06:29:34;99934.60;;;4.90
68127;BMP180;54931;52.098;21.006;2024-03-02T06:32:03;99939.40;;;5.00
68127;BMP180;54931;52.098;21.006;2024-03-02T06:34:30;99948.00;;;5.00
68127;BMP180;54931;52.098;21.006;2024-03-02T06:36:58;99946.40;;;5.08
68127;BMP180;54931;52.098;21.006;2024-03-02T06:39:26;99947.80;;;5.10
68127;BMP180;54931;52.098;21.006;2024-03-02T06:41:53;99946.20;;;5.10
68127;BMP180;54931;52.098;21.006;2024-03-02T06:44:21;99938.40;;;5.20
68127;BMP180;54931;52.098;21.006;2024-03-02T06:46:49;99941.80;;;5.20
68127;BMP180;54931;52.098;21.006;2024-03-02T06:49:18;99937.20;;;5.26
68127;BMP180;54931;52.098;21.006;2024-03-02T06:51:46;99938.20;;;5.30
68127;BMP180;54931;52.098;21.006;2024-03-02T06:54:14;99943.80;;;5.30
68127;BMP180;54931;52.098;21.006;2024-03-02T06:56:42;99944.40;;;5.30
68127;BMP180;54931;52.098;21.006;2024-03-02T06:59:10;99943.40;;;5.38
68127;BMP180;54931;52.098;21.006;2024-03-02T07:01:38;99948.40;;;5.40
68127;BMP180;54931;52.098;21.006;2024-03-02T07:04:06;99946.20;;;5.40
68127;BMP180;54931;52.098;21.006;2024-03-02T07:06:34;99947.60;;;5.46
68127;BMP180;54931;52.098;21.006;2024-03-02T07:09:01;99945.60;;;5.50
68127;BMP180;54931;52.098;21.006;2024-03-02T07:11:29;99949.60;;;5.50
68127;BMP180;54931;52.098;21.006;2024-03-02T07:13:57;99947.80;;;5.50
68127;BMP180;54931;52.098;21.006;2024-03-02T07:16:25;99947.80;;;5.60
68127;BMP180;54931;52.098;21.006;2024-03-02T07:18:57;99949.20;;;5.60
68127;BMP180;54931;52.098;21.006;2024-03-02T07:21:27;99953.00;;;5.60
68127;BMP180;54931;52.098;21.006;2024-03-02T07:23:55;99950.20;;;5.62
68127;BMP180;54931;52.098;21.006;2024-03-02T07:26:23;99950.40;;;5.70
68127;BMP180;54931;52.098;21.006;2024-03-02T07:28:51;99951.40;;;5.70
68127;BMP180;54931;52.098;21.006;2024-03-02T07:31:19;99956.20;;;5.70
68127;BMP180;54931;52.098;21.006;2024-03-02T07:33:47;99952.80;;;5.74
68127;BMP180;54931;52.098;21.006;2024-03-02T07:36:15;99945.80;;;5.70
68127;BMP180;54931;52.098;21.006;2024-03-02T07:38:43;99947.00;;;5.80
68127;BMP180;54931;52.098;21.006;2024-03-02T07:41:12;99951.40;;;5.90
68127;BMP180;54931;52.098;21.006;2024-03-02T07:43:40;99955.60;;;5.90
68127;BMP180;54931;52.098;21.006;2024-03-02T07:46:09;99959.60;;;6.00
68127;BMP180;54931;52.098;21.006;2024-03-02T07:48:37;99961.80;;;6.00
68127;BMP180;54931;52.098;21.006;2024-03-02T07:51:06;99968.60;;;6.04
68127;BMP180;54931;52.098;21.006;2024-03-02T07:53:34;99968.80;;;6.10
68127;BMP180;54931;52.098;21.006;2024-03-02T07:56:02;99978.60;;;6.10
68127;BMP180;54931;52.098;21.006;2024-03-02T07:58:31;99982.20;;;6.18
68127;BMP180;54931;52.098;21.006;2024-03-02T08:00:59;99981.80;;;6.22
68127;BMP180;54931;52.098;21.006;2024-03-02T08:03:29;99977.80;;;6.30
68127;BMP180;54931;52.098;21.006;2024-03-02T08:05:57;99972.40;;;6.30
68127;BMP180;54931;52.098;21.006;2024-03-02T08:08:25;99970.20;;;6.30
68127;BMP180;54931;52.098;21.006;2024-03-02T08:10:53;99970.80;;;6.40
68127;BMP180;54931;52.098;21.006;2024-03-02T08:13:21;99972.40;;;6.40
68127;BMP180;54931;52.098;21.006;2024-03-02T08:15:49;99971.40;;;6.50
68127;BMP180;54931;52.098;21.006;2024-03-02T08:18:17;99968.60;;;6.50
68127;BMP180;54931;52.098;21.006;2024-03-02T08:20:45;99969.00;;;6.50
68127;BMP180;54931;52.098;21.006;2024-03-02T08:23:13;99972.80;;;6.58
68127;BMP180;54931;52.098;21.006;2024-03-02T08:25:42;99979.40;;;6.60
68127;BMP180;54931;52.098;21.006;2024-03-02T08:28:10;99980.00;;;6.64
68127;BMP180;54931;52.098;21.006;2024-03-02T08:30:38;99977.60;;;6.64
68127;BMP180;54931;52.098;21.006;2024-03-02T08:33:07;99981.60;;;6.70
68127;BMP180;54931;52.098;21.006;2024-03-02T08:35:35;99978.00;;;6.70
68127;BMP180;54931;52.098;21.006;2024-03-02T08:38:04;99978.80;;;6.70
68127;BMP180;54931;52.098;21.006;2024-03-02T08:40:33;99989.00;;;6.70
68127;BMP180;54931;52.098;21.006;2024-03-02T08:43:02;99984.60;;;6.70
68127;BMP180;54931;52.098;21.006;2024-03-02T08:45:31;99988.80;;;6.70
68127;BMP180;54931;52.098;21.006;2024-03-02T08:48:00;99984.40;;;6.80
68127;BMP180;54931;52.098;21.006;2024-03-02T08:50:29;99979.20;;;6.72
68127;BMP180;54931;52.098;21.006;2024-03-02T08:52:57;99985.60;;;6.70
68127;BMP180;54931;52.098;21.006;2024-03-02T08:55:26;99982.60;;;6.76
68127;BMP180;54931;52.098;21.006;2024-03-02T08:57:55;99984.00;;;6.80
68127;BMP180;54931;52.098;21.006;2024-03-02T09:00:23;99985.80;;;6.80
68127;BMP180;54931;52.098;21.006;2024-03-02T09:02:52;99990.40;;;6.80
68127;BMP180;54931;52.098;21.006;2024-03-02T09:05:20;99987.80;;;6.82
68127;BMP180;54931;52.098;21.006;2024-03-02T09:07:48;99987.20;;;6.88
68127;BMP180;54931;52.098;21.006;2024-03-02T09:10:16;99990.60;;;6.90
68127;BMP180;54931;52.098;21.006;2024-03-02T09:12:44;99993.60;;;6.90
68127;BMP180;54931;52.098;21.006;2024-03-02T09:15:12;99992.40;;;6.98
68127;BMP180;54931;52.098;21.006;2024-03-02T09:17:40;99991.80;;;7.00
68127;BMP180;54931;52.098;21.006;2024-03-02T09:20:09;99987.20;;;7.00
68127;BMP180;54931;52.098;21.006;2024-03-02T09:22:37;99989.20;;;7.04
68127;BMP180;54931;52.098;21.006;2024-03-02T09:25:05;99990.20;;;7.00
68127;BMP180;54931;52.098;21.006;2024-03-02T09:27:38;99987.80;;;7.00
68127;BMP180;54931;52.098;21.006;2024-03-02T09:30:08;99989.80;;;7.06
68127;BMP180;54931;52.098;21.006;2024-03-02T09:32:38;99990.00;;;7.10
68127;BMP180;54931;52.098;21.006;2024-03-02T09:35:06;99990.40;;;7.10
68127;BMP180;54931;52.098;21.006;2024-03-02T09:37:35;99994.00;;;7.20
68127;BMP180;54931;52.098;21.006;2024-03-02T09:40:04;99988.20;;;7.20
68127;BMP180;54931;52.098;21.006;2024-03-02T09:42:34;99984.80;;;7.30
68127;BMP180;54931;52.098;21.006;2024-03-02T09:45:03;99983.40;;;7.40
68127;BMP180;54931;52.098;21.006;2024-03-02T09:47:32;99992.00;;;7.40
68127;BMP180;54931;52.098;21.006;2024-03-02T09:50:00;99990.20;;;7.50
68127;BMP180;54931;52.098;21.006;2024-03-02T09:52:28;99993.00;;;7.50
68127;BMP180;54931;52.098;21.006;2024-03-02T09:54:57;99993.40;;;7.60
68127;BMP180;54931;52.098;21.006;2024-03-02T09:57:25;99991.80;;;7.60
68127;BMP180;54931;52.098;21.006;2024-03-02T09:59:53;99988.80;;;7.60
68127;BMP180;54931;52.098;21.006;2024-03-02T10:02:21;99991.20;;;7.70
68127;BMP180;54931;52.098;21.006;2024-03-02T10:04:50;99990.80;;;7.70
68127;BMP180;54931;52.098;21.006;2024-03-02T10:07:19;99988.60;;;7.70
68127;BMP180;54931;52.098;21.006;2024-03-02T10:09:49;99989.60;;;7.70
68127;BMP180;54931;52.098;21.006;2024-03-02T10:12:18;99986.00;;;7.70
68127;BMP180;54931;52.098;21.006;2024-03-02T10:14:46;99982.00;;;7.64
68127;BMP180;54931;52.098;21.006;2024-03-02T10:17:18;99979.80;;;7.70
68127;BMP180;54931;52.098;21.006;2024-03-02T10:19:46;99977.80;;;7.74
68127;BMP180;54931;52.098;21.006;2024-03-02T10:22:15;99977.80;;;7.80
68127;BMP180;54931;52.098;21.006;2024-03-02T10:24:44;99976.60;;;7.88
68127;BMP180;54931;52.098;21.006;2024-03-02T10:27:22;99973.40;;;8.00
68127;BMP180;54931;52.098;21.006;2024-03-02T10:29:51;99973.40;;;8.12
68127;BMP180;54931;52.098;21.006;2024-03-02T10:32:22;99972.00;;;8.30
68127;BMP180;54931;52.098;21.006;2024-03-02T10:34:51;99975.80;;;8.40
68127;BMP180;54931;52.098;21.006;2024-03-02T10:37:21;99972.20;;;8.50
68127;BMP180;54931;52.098;21.006;2024-03-02T10:39:49;99969.60;;;8.60
68127;BMP180;54931;52.098;21.006;2024-03-02T10:42:19;99967.20;;;8.70
68127;BMP180;54931;52.098;21.006;2024-03-02T10:44:50;99963.60;;;8.78
68127;BMP180;54931;52.098;21.006;2024-03-02T10:47:21;99970.20;;;8.90
68127;BMP180;54931;52.098;21.006;2024-03-02T10:49:52;99970.80;;;8.92
68127;BMP180;54931;52.098;21.006;2024-03-02T10:52:21;99967.00;;;9.10
68127;BMP180;54931;52.098;21.006;2024-03-02T10:54:50;99966.20;;;9.20
68127;BMP180;54931;52.098;21.006;2024-03-02T10:57:21;99966.20;;;9.30
68127;BMP180;54931;52.098;21.006;2024-03-02T10:59:57;99967.40;;;9.38
68127;BMP180;54931;52.098;21.006;2024-03-02T11:02:31;99966.60;;;9.40
68127;BMP180;54931;52.098;21.006;2024-03-02T11:05:06;99955.60;;;9.30
68127;BMP180;54931;52.098;21.006;2024-03-02T11:07:38;99962.40;;;9.30
68127;BMP180;54931;52.098;21.006;2024-03-02T11:10:09;99963.00;;;9.40
68127;BMP180;54931;52.098;21.006;2024-03-02T11:12:56;99959.80;;;9.34
68127;BMP180;54931;52.098;21.006;2024-03-02T11:15:27;99961.20;;;9.30
68127;BMP180;54931;52.098;21.006;2024-03-02T11:17:57;99958.80;;;9.40
68127;BMP180;54931;52.098;21.006;2024-03-02T11:20:26;99954.20;;;9.44
68127;BMP180;54931;52.098;21.006;2024-03-02T11:22:56;99949.60;;;9.50
68127;BMP180;54931;52.098;21.006;2024-03-02T11:25:28;99955.80;;;9.60
68127;BMP180;54931;52.098;21.006;2024-03-02T11:35:41;99940.40;;;9.92
68127;BMP180;54931;52.098;21.006;2024-03-02T11:38:19;99940.80;;;10.10
68127;BMP180;54931;52.098;21.006;2024-03-02T11:40:47;99932.00;;;10.30
68127;BMP180;54931;52.098;21.006;2024-03-02T11:43:15;99934.20;;;10.46
68127;BMP180;54931;52.098;21.006;2024-03-02T11:45:43;99931.00;;;10.60
68127;BMP180;54931;52.098;21.006;2024-03-02T11:48:15;99927.60;;;10.70
68127;BMP180;54931;52.098;21.006;2024-03-02T11:50:51;99931.20;;;10.80
68127;BMP180;54931;52.098;21.006;2024-03-02T11:53:20;99927.20;;;10.62
68127;BMP180;54931;52.098;21.006;2024-03-02T11:55:50;99925.60;;;10.70
68127;BMP180;54931;52.098;21.006;2024-03-02T11:58:19;99927.20;;;10.72
68127;BMP180;54931;52.098;21.006;2024-03-02T12:00:54;99929.40;;;10.90
68127;BMP180;54931;52.098;21.006;2024-03-02T12:03:24;99933.80;;;11.00
68127;BMP180;54931;52.098;21.006;2024-03-02T12:05:55;99939.40;;;11.00
68127;BMP180;54931;52.098;21.006;2024-03-02T12:08:24;99934.20;;;11.06
68127;BMP180;54931;52.098;21.006;2024-03-02T12:11:02;99926.60;;;11.20
68127;BMP180;54931;52.098;21.006;2024-03-02T12:13:30;99930.00;;;11.34
68127;BMP180;54931;52.098;21.006;2024-03-02T12:15:59;99936.20;;;11.20
68127;BMP180;54931;52.098;21.006;2024-03-02T12:18:27;99940.60;;;11.24
68127;BMP180;54931;52.098;21.006;2024-03-02T12:20:55;99938.80;;;11.30
68127;BMP180;54931;52.098;21.006;2024-03-02T12:23:26;99937.40;;;11.40
68127;BMP180;54931;52.098;21.006;2024-03-02T12:25:55;99942.00;;;11.40
68127;BMP180;54931;52.098;21.006;2024-03-02T12:28:24;99936.00;;;11.40
68127;BMP180;54931;52.098;21.006;2024-03-02T12:30:52;99934.60;;;11.30
68127;BMP180;54931;52.098;21.006;2024-03-02T12:33:20;99940.40;;;11.16
68127;BMP180;54931;52.098;21.006;2024-03-02T12:35:49;99935.00;;;11.04
68127;BMP180;54931;52.098;21.006;2024-03-02T12:38:18;99936.40;;;11.00
68127;BMP180;54931;52.098;21.006;2024-03-02T12:40:48;99938.60;;;11.00
68127;BMP180;54931;52.098;21.006;2024-03-02T12:43:17;99939.20;;;11.00
68127;BMP180;54931;52.098;21.006;2024-03-02T12:45:45;99949.60;;;10.90
68127;BMP180;54931;52.098;21.006;2024-03-02T12:48:13;99943.80;;;10.80
68127;BMP180;54931;52.098;21.006;2024-03-02T12:50:42;99946.60;;;10.80
68127;BMP180;54931;52.098;21.006;2024-03-02T12:53:15;99938.00;;;10.70
68127;BMP180;54931;52.098;21.006;2024-03-02T12:55:44;99943.40;;;10.64
68127;BMP180;54931;52.098;21.006;2024-03-02T12:58:20;99937.20;;;10.74
68127;BMP180;54931;52.098;21.006;2024-03-02T13:00:50;99939.40;;;10.70
68127;BMP180;54931;52.098;21.006;2024-03-02T13:03:37;99941.00;;;10.70
68127;BMP180;54931;52.098;21.006;2024-03-02T13:06:06;99941.80;;;10.86
68127;BMP180;54931;52.098;21.006;2024-03-02T13:08:35;99946.20;;;10.92
68127;BMP180;54931;52.098;21.006;2024-03-02T13:11:03;99940.60;;;10.90
68127;BMP180;54931;52.098;21.006;2024-03-02T13:13:33;99940.40;;;11.00
68127;BMP180;54931;52.098;21.006;2024-03-02T13:16:02;99940.00;;;10.90
68127;BMP180;54931;52.098;21.006;2024-03-02T13:18:31;99941.00;;;10.98
68127;BMP180;54931;52.098;21.006;2024-03-02T13:20:59;99944.60;;;11.00
68127;BMP180;54931;52.098;21.006;2024-03-02T13:23:27;99937.20;;;10.88
68127;BMP180;54931;52.098;21.006;2024-03-02T13:25:58;99943.80;;;10.80
68127;BMP180;54931;52.098;21.006;2024-03-02T13:28:26;99942.40;;;10.70
68127;BMP180;54931;52.098;21.006;2024-03-02T13:30:55;99939.40;;;10.70
68127;BMP180;54931;52.098;21.006;2024-03-02T13:33:23;99937.40;;;10.54
68127;BMP180;54931;52.098;21.006;2024-03-02T13:35:52;99941.40;;;10.50
68127;BMP180;54931;52.098;21.006;2024-03-02T13:38:20;99939.00;;;10.44
68127;BMP180;54931;52.098;21.006;2024-03-02T13:40:49;99940.60;;;10.40
68127;BMP180;54931;52.098;21.006;2024-03-02T13:43:20;99930.20;;;10.30
68127;BMP180;54931;52.098;21.006;2024-03-02T13:45:50;99938.80;;;10.26
68127;BMP180;54931;52.098;21.006;2024-03-02T13:48:20;99937.20;;;10.12
68127;BMP180;54931;52.098;21.006;2024-03-02T13:50:48;99937.60;;;10.10
68127;BMP180;54931;52.098;21.006;2024-03-02T13:53:17;99933.00;;;10.10
68127;BMP180;54931;52.098;21.006;2024-03-02T13:55:46;99937.60;;;10.00
68127;BMP180;54931;52.098;21.006;2024-03-02T13:58:14;99941.20;;;10.00
68127;BMP180;54931;52.098;21.006;2024-03-02T14:00:44;99941.80;;;9.90
68127;BMP180;54931;52.098;21.006;2024-03-02T14:03:13;99936.00;;;9.80
68127;BMP180;54931;52.098;21.006;2024-03-02T14:05:43;99935.80;;;9.80
68127;BMP180;54931;52.098;21.006;2024-03-02T14:08:11;99940.80;;;9.78
68127;BMP180;54931;52.098;21.006;2024-03-02T14:10:39;99944.40;;;9.66
68127;BMP180;54931;52.098;21.006;2024-03-02T14:13:07;99944.40;;;9.60
68127;BMP180;54931;52.098;21.006;2024-03-02T14:15:35;99948.40;;;9.44
68127;BMP180;54931;52.098;21.006;2024-03-02T14:18:07;99946.00;;;9.40
68127;BMP180;54931;52.098;21.006;2024-03-02T14:20:38;99946.60;;;9.28
68127;BMP180;54931;52.098;21.006;2024-03-02T14:23:06;99949.40;;;9.20
68127;BMP180;54931;52.098;21.006;2024-03-02T14:25:35;99956.40;;;9.20
68127;BMP180;54931;52.098;21.006;2024-03-02T14:28:03;99951.00;;;9.10